sensor_id;sensor_type;location;lat;lon;timestamp;pressure;altitude;pressure_sealevel;temperature;humidity
72892;BME280;61032;50.782;6.818;2023-12-20T00:00:25;100485.13;;;8.46;91.83
72892;BME280;61032;50.782;6.818;2023-12-20T00:01:26;100470.53;;;8.28;92.30
72892;BME280;61032;50.782;6.818;2023-12-20T00:02:26;100476.94;;;8.23;93.13
72892;BME280;61032;50.782;6.818;2023-12-20T00:03:27;100462.94;;;8.25;93.52
72892;BME280;61032;50.782;6.818;2023-12-20T00:04:27;100469.97;;;8.17;93.59
72892;BME280;61032;50.782;6.818;2023-12-20T00:05:27;100471.47;;;8.23;93.59
72892;BME280;61032;50.782;6.818;2023-12-20T00:06:27;100472.94;;;8.30;93.24
72892;BME280;61032;50.782;6.818;2023-12-20T00:07:28;100466.03;;;8.32;93.18
72892;BME280;61032;50.782;6.818;2023-12-20T00:08:28;100465.91;;;8.37;92.86
72892;BME280;61032;50.782;6.818;2023-12-20T00:09:28;100467.34;;;8.35;92.94
72892;BME280;61032;50.782;6.818;2023-12-20T00:10:29;100471.38;;;8.37;93.15
72892;BME280;61032;50.782;6.818;2023-12-20T00:11:29;100461.91;;;8.43;93.04
72892;BME280;61032;50.782;6.818;2023-12-20T00:12:29;100461.72;;;8.40;92.68
72892;BME280;61032;50.782;6.818;2023-12-20T00:13:30;100467.22;;;8.40;92.98
72892;BME280;61032;50.782;6.818;2023-12-20T00:14:30;100468.31;;;8.39;92.91
72892;BME280;61032;50.782;6.818;2023-12-20T00:15:30;100467.66;;;8.33;92.52
72892;BME280;61032;50.782;6.818;2023-12-20T00:16:31;100475.25;;;8.36;92.95
72892;BME280;61032;50.782;6.818;2023-12-20T00:17:32;100471.25;;;8.42;93.21
72892;BME280;61032;50.782;6.818;2023-12-20T00:18:32;100469.00;;;8.53;93.30
72892;BME280;61032;50.782;6.818;2023-12-20T00:19:32;100471.63;;;8.58;92.08
72892;BME280;61032;50.782;6.818;2023-12-20T00:20:33;100468.56;;;8.59;91.82
72892;BME280;61032;50.782;6.818;2023-12-20T00:21:33;100466.50;;;8.65;91.63
72892;BME280;61032;50.782;6.818;2023-12-20T00:22:33;100467.16;;;8.71;91.06
72892;BME280;61032;50.782;6.818;2023-12-20T00:23:33;100463.25;;;8.63;90.68
72892;BME280;61032;50.782;6.818;2023-12-20T00:24:34;100474.53;;;8.61;91.21
72892;BME280;61032;50.782;6.818;2023-12-20T00:25:34;100478.94;;;8.71;90.87
72892;BME280;61032;50.782;6.818;2023-12-20T00:26:35;100482.00;;;8.70;91.09
72892;BME280;61032;50.782;6.818;2023-12-20T00:27:35;100472.63;;;8.71;91.11
72892;BME280;61032;50.782;6.818;2023-12-20T00:28:36;100483.69;;;8.57;90.61
72892;BME280;61032;50.782;6.818;2023-12-20T00:29:36;100487.06;;;8.54;90.78
72892;BME280;61032;50.782;6.818;2023-12-20T00:30:36;100484.19;;;8.50;91.82
72892;BME280;61032;50.782;6.818;2023-12-20T00:31:37;100490.59;;;8.46;91.91
72892;BME280;61032;50.782;6.818;2023-12-20T00:32:38;100481.59;;;8.54;92.34
72892;BME280;61032;50.782;6.818;2023-12-20T00:33:38;100480.94;;;8.48;92.67
72892;BME280;61032;50.782;6.818;2023-12-20T00:34:39;100482.97;;;8.34;92.86
72892;BME280;61032;50.782;6.818;2023-12-20T00:35:40;100487.94;;;8.32;93.39
72892;BME280;61032;50.782;6.818;2023-12-20T00:36:40;100483.03;;;8.20;94.06
72892;BME280;61032;50.782;6.818;2023-12-20T00:37:42;100491.13;;;8.25;94.58
72892;BME280;61032;50.782;6.818;2023-12-20T00:38:42;100491.94;;;8.26;94.52
72892;BME280;61032;50.782;6.818;2023-12-20T00:39:43;100496.97;;;8.33;94.50
72892;BME280;61032;50.782;6.818;2023-12-20T00:40:44;100494.72;;;8.35;94.51
72892;BME280;61032;50.782;6.818;2023-12-20T00:41:44;100500.03;;;8.31;94.32
72892;BME280;61032;50.782;6.818;2023-12-20T00:42:44;100498.47;;;8.39;94.84
72892;BME280;61032;50.782;6.818;2023-12-20T00:43:46;100492.53;;;8.45;94.40
72892;BME280;61032;50.782;6.818;2023-12-20T00:44:47;100494.16;;;8.46;94.36
72892;BME280;61032;50.782;6.818;2023-12-20T00:45:47;100493.84;;;8.48;93.89
72892;BME280;61032;50.782;6.818;2023-12-20T00:46:47;100492.41;;;8.50;94.39
72892;BME280;61032;50.782;6.818;2023-12-20T00:47:48;100491.59;;;8.50;93.70
72892;BME280;61032;50.782;6.818;2023-12-20T00:48:48;100482.03;;;8.39;93.70
72892;BME280;61032;50.782;6.818;2023-12-20T00:49:48;100484.94;;;8.42;93.86
72892;BME280;61032;50.782;6.818;2023-12-20T00:50:49;100488.50;;;8.43;94.01
72892;BME280;61032;50.782;6.818;2023-12-20T00:51:49;100491.50;;;8.33;93.93
72892;BME280;61032;50.782;6.818;2023-12-20T00:52:50;100493.75;;;8.31;94.33
72892;BME280;61032;50.782;6.818;2023-12-20T00:53:50;100490.38;;;8.34;94.83
72892;BME280;61032;50.782;6.818;2023-12-20T00:54:54;100491.19;;;8.34;94.86
72892;BME280;61032;50.782;6.818;2023-12-20T00:55:55;100493.13;;;8.34;94.26
72892;BME280;61032;50.782;6.818;2023-12-20T00:56:55;100499.59;;;8.38;94.31
72892;BME280;61032;50.782;6.818;2023-12-20T00:57:56;100492.03;;;8.43;94.39
72892;BME280;61032;50.782;6.818;2023-12-20T00:58:56;100492.22;;;8.47;94.09
72892;BME280;61032;50.782;6.818;2023-12-20T00:59:56;100504.63;;;8.44;93.73
72892;BME280;61032;50.782;6.818;2023-12-20T01:00:56;100500.31;;;8.52;93.62
72892;BME280;61032;50.782;6.818;2023-12-20T01:01:58;100501.13;;;8.61;93.43
72892;BME280;61032;50.782;6.818;2023-12-20T01:02:58;100501.63;;;8.63;92.94
72892;BME280;61032;50.782;6.818;2023-12-20T01:03:58;100503.41;;;8.68;92.83
72892;BME280;61032;50.782;6.818;2023-12-20T01:04:59;100501.97;;;8.70;91.89
72892;BME280;61032;50.782;6.818;2023-12-20T01:05:59;100502.94;;;8.74;91.91
72892;BME280;61032;50.782;6.818;2023-12-20T01:07:00;100509.09;;;8.80;91.18
72892;BME280;61032;50.782;6.818;2023-12-20T01:08:00;100506.53;;;8.83;90.76
72892;BME280;61032;50.782;6.818;2023-12-20T01:09:03;100516.69;;;8.83;90.35
72892;BME280;61032;50.782;6.818;2023-12-20T01:10:03;100519.47;;;8.91;89.93
72892;BME280;61032;50.782;6.818;2023-12-20T01:11:04;100513.31;;;8.94;89.21
72892;BME280;61032;50.782;6.818;2023-12-20T01:12:05;100507.19;;;8.98;89.16
72892;BME280;61032;50.782;6.818;2023-12-20T01:13:06;100511.72;;;8.93;88.21
72892;BME280;61032;50.782;6.818;2023-12-20T01:14:06;100517.34;;;8.97;88.42
72892;BME280;61032;50.782;6.818;2023-12-20T01:15:07;100505.59;;;9.05;88.05
72892;BME280;61032;50.782;6.818;2023-12-20T01:16:10;100504.94;;;9.00;87.84
72892;BME280;61032;50.782;6.818;2023-12-20T01:17:10;100509.63;;;8.99;87.84
72892;BME280;61032;50.782;6.818;2023-12-20T01:18:11;100516.91;;;9.04;88.09
72892;BME280;61032;50.782;6.818;2023-12-20T01:19:12;100513.50;;;9.07;87.59
72892;BME280;61032;50.782;6.818;2023-12-20T01:20:13;100513.66;;;9.02;87.58
72892;BME280;61032;50.782;6.818;2023-12-20T01:21:13;100508.03;;;9.07;87.53
72892;BME280;61032;50.782;6.818;2023-12-20T01:22:14;100510.16;;;9.10;87.21
72892;BME280;61032;50.782;6.818;2023-12-20T01:23:14;100517.72;;;9.13;86.55
72892;BME280;61032;50.782;6.818;2023-12-20T01:24:14;100510.31;;;9.13;86.46
72892;BME280;61032;50.782;6.818;2023-12-20T01:25:14;100516.25;;;9.07;86.53
72892;BME280;61032;50.782;6.818;2023-12-20T01:26:15;100509.78;;;9.03;86.46
72892;BME280;61032;50.782;6.818;2023-12-20T01:27:15;100521.09;;;9.01;86.73
72892;BME280;61032;50.782;6.818;2023-12-20T01:28:15;100516.25;;;9.07;86.57
72892;BME280;61032;50.782;6.818;2023-12-20T01:29:16;100517.25;;;9.11;86.61
72892;BME280;61032;50.782;6.818;2023-12-20T01:30:16;100515.44;;;9.06;86.84
72892;BME280;61032;50.782;6.818;2023-12-20T01:31:17;100521.75;;;9.07;86.68
72892;BME280;61032;50.782;6.818;2023-12-20T01:32:17;100514.00;;;9.09;86.50
72892;BME280;61032;50.782;6.818;2023-12-20T01:33:17;100522.38;;;9.04;86.57
72892;BME280;61032;50.782;6.818;2023-12-20T01:34:18;100525.63;;;9.06;85.76
72892;BME280;61032;50.782;6.818;2023-12-20T01:35:18;100521.25;;;9.05;86.14
72892;BME280;61032;50.782;6.818;2023-12-20T01:36:18;100522.25;;;9.09;85.92
72892;BME280;61032;50.782;6.818;2023-12-20T01:37:19;100520.31;;;9.09;85.47
72892;BME280;61032;50.782;6.818;2023-12-20T01:38:20;100531.09;;;9.06;85.88
72892;BME280;61032;50.782;6.818;2023-12-20T01:39:20;100521.13;;;9.10;86.25
72892;BME280;61032;50.782;6.818;2023-12-20T01:40:20;100521.25;;;9.05;85.73
72892;BME280;61032;50.782;6.818;2023-12-20T01:41:21;100516.56;;;9.05;85.41
72892;BME280;61032;50.782;6.818;2023-12-20T01:42:21;100522.25;;;9.09;85.37
72892;BME280;61032;50.782;6.818;2023-12-20T01:43:22;100529.16;;;9.15;85.51
72892;BME280;61032;50.782;6.818;2023-12-20T01:44:22;100525.75;;;9.01;85.04
72892;BME280;61032;50.782;6.818;2023-12-20T01:45:23;100536.41;;;9.02;85.35
72892;BME280;61032;50.782;6.818;2023-12-20T01:46:23;100538.34;;;9.02;85.47
72892;BME280;61032;50.782;6.818;2023-12-20T01:47:24;100529.78;;;9.03;84.71
72892;BME280;61032;50.782;6.818;2023-12-20T01:48:25;100536.06;;;8.95;84.82
72892;BME280;61032;50.782;6.818;2023-12-20T01:49:27;100526.69;;;8.96;84.61
72892;BME280;61032;50.782;6.818;2023-12-20T01:50:29;100528.63;;;8.87;84.32
72892;BME280;61032;50.782;6.818;2023-12-20T01:51:30;100542.34;;;8.95;83.31
72892;BME280;61032;50.782;6.818;2023-12-20T01:52:31;100550.88;;;8.94;83.07
72892;BME280;61032;50.782;6.818;2023-12-20T01:53:33;100545.25;;;8.90;82.74
72892;BME280;61032;50.782;6.818;2023-12-20T01:54:35;100548.63;;;8.87;83.19
72892;BME280;61032;50.782;6.818;2023-12-20T01:55:38;100555.09;;;8.52;83.20
72892;BME280;61032;50.782;6.818;2023-12-20T01:56:39;100561.84;;;8.54;83.09
72892;BME280;61032;50.782;6.818;2023-12-20T01:57:41;100557.19;;;8.55;82.15
72892;BME280;61032;50.782;6.818;2023-12-20T01:58:44;100567.03;;;8.56;82.25
72892;BME280;61032;50.782;6.818;2023-12-20T01:59:45;100581.50;;;8.48;82.25
72892;BME280;61032;50.782;6.818;2023-12-20T02:00:46;100577.47;;;8.45;81.92
72892;BME280;61032;50.782;6.818;2023-12-20T02:01:46;100575.22;;;8.47;81.35
72892;BME280;61032;50.782;6.818;2023-12-20T02:02:47;100566.94;;;8.39;81.57
72892;BME280;61032;50.782;6.818;2023-12-20T02:03:47;100569.19;;;8.37;80.98
72892;BME280;61032;50.782;6.818;2023-12-20T02:04:48;100572.16;;;8.26;80.93
72892;BME280;61032;50.782;6.818;2023-12-20T02:05:50;100576.47;;;8.19;81.56
72892;BME280;61032;50.782;6.818;2023-12-20T02:06:52;100569.94;;;8.06;81.88
72892;BME280;61032;50.782;6.818;2023-12-20T02:07:53;100564.69;;;7.96;82.34
72892;BME280;61032;50.782;6.818;2023-12-20T02:08:53;100568.88;;;7.93;82.15
72892;BME280;61032;50.782;6.818;2023-12-20T02:09:53;100567.56;;;7.91;82.33
72892;BME280;61032;50.782;6.818;2023-12-20T02:10:55;100575.94;;;7.72;82.35
72892;BME280;61032;50.782;6.818;2023-12-20T02:11:56;100573.44;;;7.62;83.10
72892;BME280;61032;50.782;6.818;2023-12-20T02:12:56;100572.03;;;7.65;83.55
72892;BME280;61032;50.782;6.818;2023-12-20T02:13:56;100586.81;;;7.64;83.33
72892;BME280;61032;50.782;6.818;2023-12-20T02:14:57;100591.19;;;7.51;83.86
72892;BME280;61032;50.782;6.818;2023-12-20T02:15:57;100579.44;;;7.50;84.05
72892;BME280;61032;50.782;6.818;2023-12-20T02:16:58;100578.47;;;7.46;84.08
72892;BME280;61032;50.782;6.818;2023-12-20T02:17:58;100586.03;;;7.49;84.85
72892;BME280;61032;50.782;6.818;2023-12-20T02:18:59;100590.72;;;7.35;84.61
72892;BME280;61032;50.782;6.818;2023-12-20T02:19:59;100582.34;;;7.18;84.68
72892;BME280;61032;50.782;6.818;2023-12-20T02:20:59;100585.59;;;7.20;85.06
72892;BME280;61032;50.782;6.818;2023-12-20T02:22:26;100586.16;;;7.31;85.19
72892;BME280;61032;50.782;6.818;2023-12-20T02:23:26;100588.91;;;7.31;84.84
72892;BME280;61032;50.782;6.818;2023-12-20T02:24:27;100591.06;;;7.20;84.77
72892;BME280;61032;50.782;6.818;2023-12-20T02:25:27;100590.31;;;7.28;85.23
72892;BME280;61032;50.782;6.818;2023-12-20T02:26:27;100593.78;;;7.20;84.62
72892;BME280;61032;50.782;6.818;2023-12-20T02:27:28;100598.06;;;7.26;85.40
72892;BME280;61032;50.782;6.818;2023-12-20T02:28:29;100606.25;;;7.26;85.14
72892;BME280;61032;50.782;6.818;2023-12-20T02:29:30;100604.19;;;7.32;84.71
72892;BME280;61032;50.782;6.818;2023-12-20T02:30:31;100607.66;;;7.23;84.20
72892;BME280;61032;50.782;6.818;2023-12-20T02:31:31;100595.41;;;7.21;84.09
72892;BME280;61032;50.782;6.818;2023-12-20T02:32:31;100603.50;;;7.26;84.28
72892;BME280;61032;50.782;6.818;2023-12-20T02:33:32;100600.78;;;7.26;83.96
72892;BME280;61032;50.782;6.818;2023-12-20T02:34:32;100593.38;;;7.13;84.40
72892;BME280;61032;50.782;6.818;2023-12-20T02:35:32;100598.97;;;7.21;84.39
72892;BME280;61032;50.782;6.818;2023-12-20T02:36:33;100590.84;;;7.16;84.40
72892;BME280;61032;50.782;6.818;2023-12-20T02:37:33;100592.28;;;7.14;84.89
72892;BME280;61032;50.782;6.818;2023-12-20T02:38:34;100595.59;;;7.11;84.75
72892;BME280;61032;50.782;6.818;2023-12-20T02:39:34;100600.28;;;6.97;85.01
72892;BME280;61032;50.782;6.818;2023-12-20T02:40:35;100595.94;;;6.96;84.62
72892;BME280;61032;50.782;6.818;2023-12-20T02:41:35;100603.00;;;6.83;85.23
72892;BME280;61032;50.782;6.818;2023-12-20T02:42:36;100603.19;;;6.86;85.71
72892;BME280;61032;50.782;6.818;2023-12-20T02:43:37;100599.78;;;6.95;86.06
72892;BME280;61032;50.782;6.818;2023-12-20T02:44:37;100604.13;;;6.96;85.42
72892;BME280;61032;50.782;6.818;2023-12-20T02:45:37;100602.41;;;7.00;85.46
72892;BME280;61032;50.782;6.818;2023-12-20T02:46:38;100600.19;;;7.02;85.00
72892;BME280;61032;50.782;6.818;2023-12-20T02:47:38;100604.84;;;7.01;84.38
72892;BME280;61032;50.782;6.818;2023-12-20T02:48:38;100609.28;;;7.11;84.39
72892;BME280;61032;50.782;6.818;2023-12-20T02:49:39;100604.84;;;7.01;84.22
72892;BME280;61032;50.782;6.818;2023-12-20T02:50:39;100597.53;;;7.10;84.56
72892;BME280;61032;50.782;6.818;2023-12-20T02:51:39;100609.47;;;7.14;84.40
72892;BME280;61032;50.782;6.818;2023-12-20T02:52:40;100608.06;;;7.17;83.49
72892;BME280;61032;50.782;6.818;2023-12-20T02:53:40;100607.88;;;7.13;83.75
72892;BME280;61032;50.782;6.818;2023-12-20T02:54:40;100598.84;;;7.13;83.62
72892;BME280;61032;50.782;6.818;2023-12-20T02:55:41;100602.91;;;7.02;83.64
72892;BME280;61032;50.782;6.818;2023-12-20T02:56:41;100606.25;;;7.12;83.80
72892;BME280;61032;50.782;6.818;2023-12-20T02:57:41;100604.91;;;7.10;83.86
72892;BME280;61032;50.782;6.818;2023-12-20T02:58:42;100599.34;;;7.15;83.99
72892;BME280;61032;50.782;6.818;2023-12-20T02:59:42;100607.56;;;7.15;83.96
72892;BME280;61032;50.782;6.818;2023-12-20T03:00:42;100605.22;;;7.08;83.42
72892;BME280;61032;50.782;6.818;2023-12-20T03:01:46;100592.28;;;7.14;84.63
72892;BME280;61032;50.782;6.818;2023-12-20T03:02:46;100591.56;;;7.08;83.61
72892;BME280;61032;50.782;6.818;2023-12-20T03:03:46;100604.00;;;7.14;84.52
72892;BME280;61032;50.782;6.818;2023-12-20T03:04:47;100607.47;;;7.20;84.37
72892;BME280;61032;50.782;6.818;2023-12-20T03:05:47;100601.78;;;7.16;84.01
72892;BME280;61032;50.782;6.818;2023-12-20T03:06:47;100596.94;;;7.13;84.47
72892;BME280;61032;50.782;6.818;2023-12-20T03:07:47;100604.72;;;7.20;83.93
72892;BME280;61032;50.782;6.818;2023-12-20T03:08:48;100605.75;;;7.24;84.05
72892;BME280;61032;50.782;6.818;2023-12-20T03:09:48;100601.38;;;7.23;83.85
72892;BME280;61032;50.782;6.818;2023-12-20T03:10:48;100603.19;;;7.28;84.14
72892;BME280;61032;50.782;6.818;2023-12-20T03:11:49;100598.25;;;7.16;83.76
72892;BME280;61032;50.782;6.818;2023-12-20T03:12:49;100596.22;;;7.21;84.53
72892;BME280;61032;50.782;6.818;2023-12-20T03:13:49;100600.38;;;7.19;84.11
72892;BME280;61032;50.782;6.818;2023-12-20T03:14:49;100606.25;;;7.26;84.37
72892;BME280;61032;50.782;6.818;2023-12-20T03:15:50;100602.59;;;7.17;84.30
72892;BME280;61032;50.782;6.818;2023-12-20T03:16:50;100596.94;;;7.13;84.82
72892;BME280;61032;50.782;6.818;2023-12-20T03:17:51;100600.88;;;7.21;85.07
72892;BME280;61032;50.782;6.818;2023-12-20T03:18:51;100601.59;;;7.13;84.64
72892;BME280;61032;50.782;6.818;2023-12-20T03:19:51;100602.09;;;7.15;84.82
72892;BME280;61032;50.782;6.818;2023-12-20T03:20:52;100600.19;;;7.02;84.98
72892;BME280;61032;50.782;6.818;2023-12-20T03:21:52;100606.66;;;6.92;86.35
72892;BME280;61032;50.782;6.818;2023-12-20T03:22:53;100597.34;;;6.93;86.48
72892;BME280;61032;50.782;6.818;2023-12-20T03:23:54;100604.22;;;6.90;87.51
72892;BME280;61032;50.782;6.818;2023-12-20T03:24:54;100593.31;;;7.04;86.28
72892;BME280;61032;50.782;6.818;2023-12-20T03:25:54;100594.31;;;6.95;85.68
72892;BME280;61032;50.782;6.818;2023-12-20T03:26:55;100596.44;;;6.98;86.64
72892;BME280;61032;50.782;6.818;2023-12-20T03:27:58;100594.13;;;7.05;86.04
72892;BME280;61032;50.782;6.818;2023-12-20T03:28:59;100592.06;;;6.97;85.79
72892;BME280;61032;50.782;6.818;2023-12-20T03:29:59;100589.44;;;6.92;85.72
72892;BME280;61032;50.782;6.818;2023-12-20T03:31:00;100589.22;;;6.88;86.05
72892;BME280;61032;50.782;6.818;2023-12-20T03:32:00;100582.25;;;6.96;86.37
72892;BME280;61032;50.782;6.818;2023-12-20T03:33:01;100585.00;;;6.96;85.26
72892;BME280;61032;50.782;6.818;2023-12-20T03:34:01;100582.16;;;7.01;85.09
72892;BME280;61032;50.782;6.818;2023-12-20T03:35:01;100585.00;;;6.96;85.51
72892;BME280;61032;50.782;6.818;2023-12-20T03:36:02;100578.50;;;6.92;85.73
72892;BME280;61032;50.782;6.818;2023-12-20T03:37:02;100586.78;;;6.86;85.98
72892;BME280;61032;50.782;6.818;2023-12-20T03:38:03;100596.44;;;6.98;85.44
72892;BME280;61032;50.782;6.818;2023-12-20T03:39:04;100595.31;;;6.99;85.70
72892;BME280;61032;50.782;6.818;2023-12-20T03:40:05;100597.97;;;7.04;85.67
72892;BME280;61032;50.782;6.818;2023-12-20T03:41:06;100597.75;;;7.00;85.34
72892;BME280;61032;50.782;6.818;2023-12-20T03:42:07;100589.75;;;7.04;84.87
72892;BME280;61032;50.782;6.818;2023-12-20T03:43:07;100595.22;;;7.04;84.96
72892;BME280;61032;50.782;6.818;2023-12-20T03:44:07;100588.03;;;6.94;85.03
72892;BME280;61032;50.782;6.818;2023-12-20T03:45:08;100589.66;;;6.95;85.34
72892;BME280;61032;50.782;6.818;2023-12-20T03:46:09;100583.19;;;7.05;85.67
72892;BME280;61032;50.782;6.818;2023-12-20T03:47:09;100581.56;;;7.04;84.84
72892;BME280;61032;50.782;6.818;2023-12-20T03:48:09;100583.66;;;7.07;84.87
72892;BME280;61032;50.782;6.818;2023-12-20T03:49:10;100575.28;;;7.03;84.60
72892;BME280;61032;50.782;6.818;2023-12-20T03:50:10;100580.34;;;6.96;84.78
72892;BME280;61032;50.782;6.818;2023-12-20T03:51:11;100577.50;;;7.01;84.81
72892;BME280;61032;50.782;6.818;2023-12-20T03:52:11;100575.47;;;6.93;85.59
72892;BME280;61032;50.782;6.818;2023-12-20T03:53:12;100578.41;;;6.97;85.46
72892;BME280;61032;50.782;6.818;2023-12-20T03:54:12;100583.16;;;6.91;85.25
72892;BME280;61032;50.782;6.818;2023-12-20T03:55:13;100581.84;;;6.88;85.91
72892;BME280;61032;50.782;6.818;2023-12-20T03:56:13;100586.53;;;7.02;85.69
72892;BME280;61032;50.782;6.818;2023-12-20T03:57:13;100588.00;;;7.08;85.51
72892;BME280;61032;50.782;6.818;2023-12-20T03:58:14;100579.94;;;7.03;84.97
72892;BME280;61032;50.782;6.818;2023-12-20T03:59:14;100581.16;;;6.97;84.87
72892;BME280;61032;50.782;6.818;2023-12-20T04:00:14;100581.16;;;6.97;85.38
72892;BME280;61032;50.782;6.818;2023-12-20T04:01:15;100582.25;;;6.82;85.82
72892;BME280;61032;50.782;6.818;2023-12-20T04:02:15;100582.34;;;6.90;85.86
72892;BME280;61032;50.782;6.818;2023-12-20T04:03:18;100582.97;;;7.01;85.70
72892;BME280;61032;50.782;6.818;2023-12-20T04:04:18;100583.38;;;6.95;85.48
72892;BME280;61032;50.782;6.818;2023-12-20T04:05:19;100578.72;;;6.95;85.15
72892;BME280;61032;50.782;6.818;2023-12-20T04:06:19;100584.78;;;6.92;85.96
72892;BME280;61032;50.782;6.818;2023-12-20T04:07:20;100596.13;;;6.85;86.13
72892;BME280;61032;50.782;6.818;2023-12-20T04:08:20;100585.59;;;6.93;85.75
72892;BME280;61032;50.782;6.818;2023-12-20T04:09:20;100583.59;;;6.84;85.27
72892;BME280;61032;50.782;6.818;2023-12-20T04:10:21;100594.31;;;6.95;85.95
72892;BME280;61032;50.782;6.818;2023-12-20T04:11:21;100599.38;;;7.01;85.29
72892;BME280;61032;50.782;6.818;2023-12-20T04:12:22;100587.81;;;6.90;85.78
72892;BME280;61032;50.782;6.818;2023-12-20T04:13:22;100591.28;;;6.96;85.41
72892;BME280;61032;50.782;6.818;2023-12-20T04:14:22;100587.94;;;6.85;85.50
72892;BME280;61032;50.782;6.818;2023-12-20T04:15:23;100588.22;;;6.98;85.54
72892;BME280;61032;50.782;6.818;2023-12-20T04:16:23;100581.75;;;6.94;85.35
72892;BME280;61032;50.782;6.818;2023-12-20T04:17:23;100582.34;;;6.90;84.96
72892;BME280;61032;50.782;6.818;2023-12-20T04:18:23;100577.69;;;6.91;84.92
72892;BME280;61032;50.782;6.818;2023-12-20T04:19:24;100573.03;;;6.92;85.46
72892;BME280;61032;50.782;6.818;2023-12-20T04:20:24;100580.53;;;7.00;84.81
72892;BME280;61032;50.782;6.818;2023-12-20T04:21:24;100571.75;;;7.03;85.07
72892;BME280;61032;50.782;6.818;2023-12-20T04:22:25;100580.53;;;7.00;84.18
72892;BME280;61032;50.782;6.818;2023-12-20T04:23:25;100567.66;;;6.86;84.05
72892;BME280;61032;50.782;6.818;2023-12-20T04:24:25;100580.84;;;6.84;85.02
72892;BME280;61032;50.782;6.818;2023-12-20T04:25:26;100578.81;;;6.90;85.28
72892;BME280;61032;50.782;6.818;2023-12-20T04:26:26;100578.59;;;6.86;84.54
72892;BME280;61032;50.782;6.818;2023-12-20T04:27:27;100569.94;;;6.84;85.37
72892;BME280;61032;50.782;6.818;2023-12-20T04:28:27;100569.19;;;6.93;85.03
72892;BME280;61032;50.782;6.818;2023-12-20T04:29:30;100580.72;;;6.89;85.34
72892;BME280;61032;50.782;6.818;2023-12-20T04:30:30;100580.66;;;6.81;85.21
72892;BME280;61032;50.782;6.818;2023-12-20T04:31:30;100578.72;;;6.81;85.31
72892;BME280;61032;50.782;6.818;2023-12-20T04:32:31;100581.94;;;6.70;85.56
72892;BME280;61032;50.782;6.818;2023-12-20T04:33:31;100585.19;;;6.72;85.88
72892;BME280;61032;50.782;6.818;2023-12-20T04:34:32;100589.06;;;6.84;85.38
72892;BME280;61032;50.782;6.818;2023-12-20T04:35:32;100582.97;;;6.87;85.10
72892;BME280;61032;50.782;6.818;2023-12-20T04:36:32;100585.09;;;6.90;85.34
72892;BME280;61032;50.782;6.818;2023-12-20T04:37:33;100594.31;;;6.81;85.36
72892;BME280;61032;50.782;6.818;2023-12-20T04:38:33;100589.88;;;6.85;85.06
72892;BME280;61032;50.782;6.818;2023-12-20T04:39:33;100595.81;;;6.87;85.69
72892;BME280;61032;50.782;6.818;2023-12-20T04:40:34;100605.03;;;6.77;85.53
72892;BME280;61032;50.782;6.818;2023-12-20T04:41:35;100599.97;;;6.84;85.28
72892;BME280;61032;50.782;6.818;2023-12-20T04:42:35;100596.13;;;6.85;85.35
72892;BME280;61032;50.782;6.818;2023-12-20T04:43:35;100584.56;;;6.88;86.18
72892;BME280;61032;50.782;6.818;2023-12-20T04:44:36;100590.84;;;6.89;85.50
72892;BME280;61032;50.782;6.818;2023-12-20T04:45:36;100596.94;;;7.00;84.96
72892;BME280;61032;50.782;6.818;2023-12-20T04:46:37;100594.91;;;6.92;84.90
72892;BME280;61032;50.782;6.818;2023-12-20T04:47:37;100597.13;;;6.89;85.05
72892;BME280;61032;50.782;6.818;2023-12-20T04:48:37;100599.78;;;6.95;85.17
72892;BME280;61032;50.782;6.818;2023-12-20T04:49:37;100597.94;;;6.90;84.48
72892;BME280;61032;50.782;6.818;2023-12-20T04:50:38;100597.84;;;6.95;84.41
72892;BME280;61032;50.782;6.818;2023-12-20T04:51:38;100603.19;;;6.86;84.39
72892;BME280;61032;50.782;6.818;2023-12-20T04:52:39;100604.00;;;6.87;84.63
72892;BME280;61032;50.782;6.818;2023-12-20T04:53:39;100601.78;;;6.75;84.39
72892;BME280;61032;50.782;6.818;2023-12-20T04:54:39;100607.66;;;6.82;84.30
72892;BME280;61032;50.782;6.818;2023-12-20T04:55:39;100607.25;;;6.75;85.55
72892;BME280;61032;50.782;6.818;2023-12-20T04:56:41;100603.91;;;6.78;84.75
72892;BME280;61032;50.782;6.818;2023-12-20T04:57:41;100605.03;;;6.77;85.05
72892;BME280;61032;50.782;6.818;2023-12-20T04:58:43;100599.84;;;6.76;85.22
72892;BME280;61032;50.782;6.818;2023-12-20T04:59:43;100593.69;;;6.70;85.75
72892;BME280;61032;50.782;6.818;2023-12-20T05:00:43;100592.06;;;6.69;85.72
72892;BME280;61032;50.782;6.818;2023-12-20T05:01:43;100602.16;;;6.69;86.48
72892;BME280;61032;50.782;6.818;2023-12-20T05:02:44;100595.28;;;6.71;86.17
72892;BME280;61032;50.782;6.818;2023-12-20T05:03:44;100605.03;;;6.77;86.29
72892;BME280;61032;50.782;6.818;2023-12-20T05:04:44;100599.56;;;6.77;86.34
72892;BME280;61032;50.782;6.818;2023-12-20T05:05:45;100603.41;;;6.76;86.00
72892;BME280;61032;50.782;6.818;2023-12-20T05:06:45;100611.59;;;6.76;85.50
72892;BME280;61032;50.782;6.818;2023-12-20T05:07:45;100608.16;;;6.71;86.35
72892;BME280;61032;50.782;6.818;2023-12-20T05:08:46;100608.56;;;6.78;86.26
72892;BME280;61032;50.782;6.818;2023-12-20T05:09:46;100606.84;;;6.82;85.86
72892;BME280;61032;50.782;6.818;2023-12-20T05:10:47;100600.66;;;6.90;85.63
72892;BME280;61032;50.782;6.818;2023-12-20T05:11:48;100603.00;;;6.83;85.25
72892;BME280;61032;50.782;6.818;2023-12-20T05:12:48;100595.00;;;6.86;85.08
72892;BME280;61032;50.782;6.818;2023-12-20T05:13:48;100600.88;;;6.94;84.87
72892;BME280;61032;50.782;6.818;2023-12-20T05:14:49;100606.84;;;6.82;84.77
72892;BME280;61032;50.782;6.818;2023-12-20T05:15:49;100591.16;;;6.87;84.91
72892;BME280;61032;50.782;6.818;2023-12-20T05:16:49;100593.06;;;6.73;85.41
72892;BME280;61032;50.782;6.818;2023-12-20T05:17:50;100591.16;;;6.74;85.55
72892;BME280;61032;50.782;6.818;2023-12-20T05:18:50;100590.34;;;6.73;85.27
72892;BME280;61032;50.782;6.818;2023-12-20T05:19:52;100594.41;;;6.76;85.34
72892;BME280;61032;50.782;6.818;2023-12-20T05:20:52;100586.09;;;6.67;85.10